Terminal Aerodrome Forecast
Issued by NWS Billings, MT

Home | Current Version | Previous Version | Text Only | Print | Product List | Glossary Off
Versions: 1 2 3 4 5 6 7 8 9 10 11 12 13 14 15 16 17 18 19 20 21 22

000
FTUS45 KBYZ 231040 AAA
TAFMLS
TAF AMD
KMLS 231040Z 2311/2406 05012KT P6SM SCT007 BKN100
      TEMPO 2311/2314 BKN007
     FM231900 10015KT P6SM BKN090
     FM240300 03010KT P6SM VCSH BKN080=

USA.gov is the U.S. government's official web portal to all federal, state and local government web resources and services.